Marquette, WI (53947)

3:50 AM CST on February 12, 2016 (GMT -0600)
Marquette County | | Change Station
CLOSE
Current Station
Personal Weather Station
Location: Montello, WI
Elevation: 797 ft
Nearby Weather Stations
Active Advisory: Wind Chill Advisory

Elev 797 ft 43.79 °N, 89.34 °W | Updated 11 minutes ago

Overcast
Overcast
17.0 °F
Feels Like 7 °F
N
8.0
Wind Variable Wind from SW
Gusts 12.0 mph

Today
High -- | Low -- °F
--% Chance of Precip.
Yesterday
High -- | Low -- °F
Precip. -- in
Pressure 30.13 in
Visibility 10.0 miles
Clouds Mostly Cloudy 4200 ft
Overcast 5500 ft
Windchill 7 °F
Dew Point 5 °F
Humidity 59%
Rainfall Not available.
Snow Depth Not available.
7:00 AM 5:22 PM
Waxing Crescent, 19% visible
METAR KY50 120856Z AUTO 27007KT 10SM BKN042 OVC055 M10/M17 A3013 RMK AO2
Pressure 30.13 in
Visibility 10.0 miles
Clouds Mostly Cloudy 4200 ft
Overcast 5500 ft
Windchill 7 °F
Dew Point 5 °F
Humidity 59%
Rainfall Not available.
Snow Depth Not available.
7:00 AM 5:22 PM
Waxing Crescent, 19% visible
METAR KY50 120856Z AUTO 27007KT 10SM BKN042 OVC055 M10/M17 A3013 RMK AO2

10-Day Weather Forecast

Almanac

Astronomy

Feb. 12, 2016 Rise Set
Actual Time
Civil Twilight
Nautical Twilight
Astronomical Twilight
Moon
Length of Visible Light
Length of Day
Tomorrow will be .
, % of the Moon is Illuminated

Today's Extremes

State Highs State Lows

Community

WunderPhotos

Upload Photos

1,892,286 photos uploaded!

WunderBlog® & News

Nearby

Air Quality

  Air Quality AQ Index Pollutant
Not available.

Snow Depth

Station Depth Elevation

Earthquake Activity

City Distance Mag. Time & Date
Minimum magnitude displayed is 2.5.

Coastal Water Temperatures

Place Temperature

Stations

Nearby Weather Stations

Station Location Temp. Windchill Dew Point Humidity Wind Precip. Elev Updated Type
                   

Watches & Warnings

Wind Chill Advisory
Issued: 3:27 AM CST Feb. 12, 2016 – National Weather Service

... Wind Chill Advisory in effect from midnight tonight to 9 am
CST Saturday...

The National Weather Service in Milwaukee/Sullivan has issued a
Wind Chill Advisory... which is in effect from midnight tonight to
9 am CST Saturday.

* Tonight through early Saturday.

* Wind chill values of 20 to 25 degrees below zero are expected.

Precautionary/preparedness actions...

A Wind Chill Advisory means that very cold air and strong winds
will combine to generate low wind chills. This will result in
frost bite and lead to hypothermia if precautions are not taken.
If you must venture outdoors... make sure you wear a hat and
gloves.



Halbach